Impacts TAF Board INFO
FOR SITUATIONAL AWARENESS. NOT TO BE USED FOR FLIGHT PLANNING PURPOSES.
IDs:

KMDW - Chicago/Midway Intl, IL, US

Issued at 1501 UTC 14 Dec 2017
Updated at 1711 UTC 14 Dec 2017
Potential Impact None Slight Moderate High
Time1653Z 14/18Z 14/19Z 14/20Z 14/21Z 14/22Z 14/23Z 15/00Z 15/01Z 15/02Z 15/03Z 15/04Z 15/05Z 15/06Z>>
Type OBS PRVL PRVL PRVL PRVL PRVL PRVL PRVL PRVL PRVL PRVL PRVL PRVL PRVL
VIS 10 >6 >6 >6 >6 >6 >6 >6 >6 >6 >6 >6 >6 >6
CIG 250 -- -- -- -- -- -- -- -- 45 45 45 45 45
Cover BKN SCT SCT SCT SCT SCT SCT SCT SCT BKN BKN BKN BKN BKN
FltCat VFR VFR VFR VFR VFR VFR VFR VFR VFR VFR VFR VFR VFR VFR
WX -- -- -- -- -- -- -- -- -- -- -- -- -- --
WDir 350 330 330 330 290 290 290 290 290 240 240 240 240 240
WSpd 5 10 10 10 8 8 8 8 8 7 7 7 7 7
WGst -- -- -- -- -- -- -- -- -- -- -- -- -- --

Raw TAF
KMDW 141501Z 1415/1518 33010KT P6SM FEW045 SCT250
  FM142100 29008KT P6SM SCT250
  FM150200 24007KT P6SM BKN045 BKN060
  FM151400 28012G21KT P6SM SCT025 OVC040


Raw METAR
KMDW 141653Z 35005KT 10SM FEW048 BKN250 M04/M11 A3007 RMK AO2 SLP198 T10391106
KMDW 141553Z 33007KT 10SM FEW048 BKN250 M05/M11 A3009 RMK AO2 SLP204 T10501106
KMDW 141453Z 34010KT 10SM FEW048 BKN250 M07/M11 A3006 RMK AO2 SLP195 T10671111 53026

METAR Board
Radar Display
Forecast Discussion

FOR SITUATIONAL AWARENESS. NOT TO BE USED FOR FLIGHT PLANNING PURPOSES.